createdAt,value
2022-09-07T00:01:54.394Z,2.23
2022-09-07T00:04:22.302Z,3.27
2022-09-07T00:06:49.974Z,2.90
2022-09-07T00:09:19.319Z,3.17
2022-09-07T00:11:47.195Z,3.10
2022-09-07T00:14:14.869Z,3.30
2022-09-07T00:16:42.660Z,3.83
2022-09-07T00:19:10.379Z,3.17
2022-09-07T00:21:38.827Z,2.70
2022-09-07T00:24:06.737Z,3.30
2022-09-07T00:26:35.920Z,2.70
2022-09-07T00:29:06.287Z,3.27
2022-09-07T00:31:34.587Z,2.90
2022-09-07T00:34:03.294Z,3.00
2022-09-07T00:36:31.324Z,2.10
2022-09-07T00:38:59.434Z,2.70
2022-09-07T00:41:27.705Z,2.67
2022-09-07T00:43:58.371Z,2.03
2022-09-07T00:46:28.730Z,2.40
2022-09-07T00:49:00.784Z,2.37
2022-09-07T00:51:33.489Z,2.30
2022-09-07T00:54:06.865Z,1.70
2022-09-07T00:56:39.256Z,2.00
2022-09-07T00:59:09.289Z,2.03
2022-09-07T01:01:37.408Z,2.00
2022-09-07T01:04:05.172Z,1.57
2022-09-07T01:06:35.475Z,1.87
2022-09-07T01:09:05.286Z,2.20
2022-09-07T01:11:35.314Z,2.57
2022-09-07T01:14:04.809Z,2.43
2022-09-07T01:16:50.986Z,2.40
2022-09-07T01:19:42.652Z,2.77
2022-09-07T01:22:26.131Z,3.70
2022-09-07T01:25:03.882Z,2.60
2022-09-07T01:28:02.927Z,2.60
2022-09-07T01:30:35.865Z,3.10
2022-09-07T01:33:34.584Z,2.40
2022-09-07T01:36:12.520Z,2.63
2022-09-07T01:38:45.650Z,2.30
2022-09-07T01:41:21.411Z,2.63
2022-09-07T01:43:55.204Z,2.47
2022-09-07T01:46:28.711Z,2.20
2022-09-07T01:49:01.378Z,2.40
2022-09-07T01:51:32.773Z,2.23
2022-09-07T01:54:06.449Z,1.80
2022-09-07T01:56:37.569Z,2.23
2022-09-07T01:59:16.045Z,2.00
2022-09-07T02:01:50.670Z,1.70
2022-09-07T02:04:22.523Z,1.60
2022-09-07T02:06:55.838Z,1.77
2022-09-07T02:09:30.185Z,1.90
2022-09-07T02:11:58.589Z,1.77
2022-09-07T02:14:32.054Z,1.80
2022-09-07T02:17:04.370Z,1.97
2022-09-07T02:19:37.497Z,2.20
2022-09-07T02:22:14.607Z,1.63
2022-09-07T02:24:46.813Z,2.30
2022-09-07T02:27:19.719Z,1.97
2022-09-07T02:29:48.752Z,2.20
2022-09-07T02:32:16.426Z,2.00
2022-09-07T02:34:44.177Z,2.07
2022-09-07T02:37:13.308Z,1.80
2022-09-07T02:39:41.135Z,2.50
2022-09-07T02:42:10.110Z,1.70
2022-09-07T02:44:40.606Z,1.80
2022-09-07T02:47:25.272Z,1.67
2022-09-07T02:50:13.259Z,1.80
2022-09-07T02:52:47.908Z,1.80
2022-09-07T02:55:27.060Z,1.97
2022-09-07T02:58:06.064Z,1.80
2022-09-07T03:00:40.216Z,1.70
2022-09-07T03:03:16.710Z,1.67
2022-09-07T03:05:50.159Z,1.77
2022-09-07T03:08:21.816Z,2.03
2022-09-07T03:10:50.999Z,1.80
2022-09-07T03:13:22.938Z,2.43
2022-09-07T03:15:55.112Z,2.10
2022-09-07T03:18:25.828Z,1.90
2022-09-07T03:20:53.882Z,1.90
2022-09-07T03:23:21.557Z,1.80
2022-09-07T03:25:49.706Z,1.77
2022-09-07T03:28:17.509Z,1.50
2022-09-07T03:30:46.238Z,2.07
2022-09-07T03:33:15.848Z,2.00
2022-09-07T03:35:45.547Z,2.10
2022-09-07T03:38:13.643Z,1.70
2022-09-07T03:40:41.518Z,2.10
2022-09-07T03:43:09.269Z,2.23
2022-09-07T03:45:36.978Z,2.20
2022-09-07T03:48:04.765Z,2.20
2022-09-07T03:50:32.379Z,2.20
2022-09-07T03:53:01.377Z,2.20
2022-09-07T03:55:29.001Z,2.20
2022-09-07T03:57:56.799Z,2.00
2022-09-07T04:00:24.427Z,2.07
2022-09-07T04:02:52.157Z,1.70
2022-09-07T04:05:19.842Z,1.63
2022-09-07T04:07:49.097Z,1.57
2022-09-07T04:10:18.324Z,2.40
2022-09-07T04:12:45.955Z,2.10
2022-09-07T04:15:13.587Z,2.27
2022-09-07T04:17:41.217Z,2.37
2022-09-07T04:20:09.926Z,2.40
2022-09-07T04:22:37.580Z,2.83
2022-09-07T04:25:05.805Z,2.90
2022-09-07T04:27:34.777Z,2.03
2022-09-07T04:30:02.455Z,2.17
2022-09-07T04:32:30.357Z,2.47
2022-09-07T04:34:57.996Z,2.17
2022-09-07T04:37:25.629Z,2.27
2022-09-07T04:39:53.488Z,2.50
2022-09-07T04:42:21.635Z,2.30
2022-09-07T04:44:51.470Z,3.23
2022-09-07T04:47:19.143Z,3.40
2022-09-07T04:49:46.787Z,2.40
2022-09-07T04:52:14.455Z,3.07
2022-09-07T04:54:42.592Z,2.80
2022-09-07T04:57:10.558Z,2.47
2022-09-07T04:59:38.326Z,3.00
2022-09-07T05:02:07.641Z,3.30
2022-09-07T05:04:36.014Z,3.80
2022-09-07T05:07:03.674Z,3.47
2022-09-07T05:09:31.457Z,3.43
2022-09-07T05:11:59.140Z,2.53
2022-09-07T05:14:27.070Z,2.30
2022-09-07T05:16:54.821Z,2.63
2022-09-07T05:19:24.093Z,2.67
2022-09-07T05:21:51.796Z,2.50
2022-09-07T05:24:19.779Z,2.57
2022-09-07T05:26:47.430Z,2.97
2022-09-07T05:32:03.156Z,2.80
2022-09-07T05:34:32.546Z,2.67
2022-09-07T05:37:01.063Z,2.57
2022-09-07T05:39:28.991Z,3.17
2022-09-07T05:41:57.075Z,3.23
2022-09-07T05:47:13.449Z,2.87
2022-09-07T05:49:42.599Z,3.57
2022-09-07T05:52:10.508Z,2.47
2022-09-07T05:54:38.243Z,2.73
2022-09-07T05:57:07.329Z,3.43
2022-09-07T05:59:35.459Z,2.97
2022-09-07T06:02:03.237Z,2.83
2022-09-07T06:04:30.921Z,4.70
2022-09-07T06:07:20.564Z,2.93
2022-09-07T06:12:35.804Z,3.67
2022-09-07T06:15:04.919Z,4.57
2022-09-07T06:17:33.200Z,3.97
2022-09-07T06:20:00.843Z,3.77
2022-09-07T06:22:31.130Z,4.10
2022-09-07T06:24:59.172Z,4.30
2022-09-07T06:27:26.815Z,3.47
2022-09-07T06:29:54.505Z,2.87
2022-09-07T06:35:11.056Z,3.30
2022-09-07T06:37:40.130Z,4.37
2022-09-07T06:40:10.480Z,4.03
2022-09-07T06:42:38.474Z,7.40
2022-09-07T06:45:07.472Z,3.80
2022-09-07T06:47:35.108Z,3.60
2022-09-07T06:50:02.746Z,3.67
2022-09-07T06:55:19.346Z,3.37
2022-09-07T06:57:46.961Z,3.17
2022-09-07T07:00:15.462Z,3.20
2022-09-07T07:02:43.098Z,2.40
2022-09-07T07:05:11.041Z,2.53
2022-09-07T07:07:38.674Z,2.40
2022-09-07T07:10:07.151Z,2.40
2022-09-07T07:15:02.839Z,2.00
2022-09-07T07:17:30.518Z,2.30
2022-09-07T07:19:58.160Z,1.80
2022-09-07T07:25:13.378Z,1.93
2022-09-07T07:27:42.518Z,2.13
2022-09-07T07:30:11.142Z,2.30
2022-09-07T07:32:38.843Z,2.33
2022-09-07T07:35:08.715Z,2.63
2022-09-07T07:37:37.127Z,2.70
2022-09-07T07:40:23.562Z,2.90
2022-09-07T07:42:55.757Z,3.93
2022-09-07T07:48:12.636Z,3.73
2022-09-07T07:50:40.253Z,3.77
2022-09-07T07:55:58.187Z,3.63
2022-09-07T07:58:27.892Z,4.23
2022-09-07T08:00:56.457Z,4.43
2022-09-07T08:03:26.134Z,4.03
2022-09-07T08:05:54.157Z,5.00
2022-09-07T08:08:23.103Z,4.67
2022-09-07T08:10:50.818Z,3.83
2022-09-07T08:13:19.224Z,4.10
2022-09-07T08:15:48.515Z,4.20
2022-09-07T08:18:17.676Z,3.83
2022-09-07T08:20:45.360Z,4.40
2022-09-07T08:23:13.051Z,6.23
2022-09-07T08:25:50.610Z,3.57
2022-09-07T08:28:18.245Z,3.53
2022-09-07T08:30:45.934Z,3.80
2022-09-07T08:33:15.407Z,3.60
2022-09-07T08:35:43.257Z,3.53
2022-09-07T08:38:11.330Z,4.40
2022-09-07T08:40:39.599Z,2.97
2022-09-07T08:43:17.402Z,3.60
2022-09-07T08:45:48.535Z,3.07
2022-09-07T08:48:21.048Z,3.20
2022-09-07T08:50:56.225Z,3.20
2022-09-07T08:53:25.660Z,2.53
2022-09-07T08:55:57.213Z,2.70
2022-09-07T08:58:48.671Z,2.70
2022-09-07T09:01:35.702Z,2.40
2022-09-07T09:04:19.468Z,2.50
2022-09-07T09:06:58.450Z,2.53
2022-09-07T09:09:34.269Z,2.70
2022-09-07T09:12:13.736Z,2.57
2022-09-07T09:14:57.704Z,2.30
2022-09-07T09:17:31.942Z,2.00
2022-09-07T09:20:11.798Z,2.17
2022-09-07T09:22:39.820Z,2.10
2022-09-07T09:25:18.980Z,2.10
2022-09-07T09:27:46.912Z,2.13
2022-09-07T09:30:16.166Z,3.77
2022-09-07T09:32:45.419Z,3.43
2022-09-07T09:35:19.581Z,3.20
2022-09-07T09:37:47.289Z,3.20
2022-09-07T09:40:26.808Z,4.30
2022-09-07T09:43:03.726Z,4.00
2022-09-07T09:48:31.545Z,3.20
2022-09-07T09:53:56.766Z,2.50
2022-09-07T09:56:37.001Z,2.50
2022-09-07T10:05:26.967Z,2.40
2022-09-07T10:07:56.810Z,2.10
2022-09-07T10:10:25.958Z,2.20
2022-09-07T10:12:55.197Z,2.27
2022-09-07T10:15:30.080Z,2.27
2022-09-07T10:17:59.453Z,2.03
2022-09-07T10:20:33.601Z,2.40
2022-09-07T10:23:03.894Z,2.40
2022-09-07T10:25:33.654Z,2.40
2022-09-07T10:28:15.424Z,2.60
2022-09-07T10:30:55.402Z,2.73
2022-09-07T10:33:35.069Z,3.13
2022-09-07T10:36:10.864Z,2.87
2022-09-07T10:38:46.711Z,2.47
2022-09-07T10:41:15.686Z,2.30
2022-09-07T10:43:45.107Z,3.00
2022-09-07T10:46:57.922Z,4.30
2022-09-07T10:49:34.493Z,4.10
2022-09-07T10:52:12.178Z,4.05
2022-09-07T10:54:49.940Z,3.80
2022-09-07T10:57:33.225Z,3.30
2022-09-07T11:00:08.960Z,2.92
2022-09-07T11:05:53.304Z,3.60
2022-09-07T11:09:15.083Z,3.47
2022-09-07T11:14:20.097Z,3.20
2022-09-07T11:16:53.561Z,3.38
2022-09-07T11:19:35.920Z,4.93
2022-09-07T11:22:15.355Z,5.43
2022-09-07T11:25:29.208Z,4.00
2022-09-07T11:27:42.678Z,3.30
2022-09-07T11:30:19.720Z,3.37
2022-09-07T11:32:54.602Z,3.90
2022-09-07T11:35:31.029Z,4.13
2022-09-07T11:38:05.413Z,4.38
2022-09-07T11:40:37.236Z,4.20
2022-09-07T11:43:18.328Z,3.50
2022-09-07T11:45:50.436Z,3.65
2022-09-07T11:48:22.818Z,7.28
2022-09-07T11:50:54.923Z,5.82
2022-09-07T11:53:27.331Z,5.07
2022-09-07T11:55:59.833Z,4.57
2022-09-07T11:58:53.224Z,4.30
2022-09-07T12:01:33.238Z,3.67
2022-09-07T12:04:31.598Z,4.47
2022-09-07T12:07:25.376Z,3.83
2022-09-07T12:10:24.991Z,4.32
2022-09-07T12:13:22.805Z,4.30
2022-09-07T12:15:59.632Z,3.65
2022-09-07T12:18:41.229Z,3.17
2022-09-07T12:21:32.214Z,2.78
2022-09-07T12:24:00.086Z,2.95
2022-09-07T12:26:52.960Z,3.33
2022-09-07T12:29:23.688Z,3.10
2022-09-07T12:31:59.582Z,3.30
2022-09-07T12:34:47.295Z,2.70
2022-09-07T12:37:38.387Z,2.50
2022-09-07T12:40:39.470Z,2.80
2022-09-07T12:43:47.155Z,2.22
2022-09-07T12:46:43.365Z,2.40
2022-09-07T12:49:41.855Z,3.67
2022-09-07T12:52:25.602Z,4.50
2022-09-07T12:55:26.098Z,3.85
2022-09-07T12:57:55.531Z,2.80
2022-09-07T13:00:31.500Z,2.97
2022-09-07T13:03:53.560Z,2.88
2022-09-07T13:09:32.819Z,2.40
2022-09-07T13:12:04.815Z,2.20
2022-09-07T13:14:37.045Z,2.20
2022-09-07T13:17:43.211Z,2.63
2022-09-07T13:20:39.120Z,2.28
2022-09-07T13:23:31.353Z,2.17
2022-09-07T13:26:01.332Z,1.80
2022-09-07T13:28:41.412Z,2.00
2022-09-07T13:31:40.936Z,2.00
2022-09-07T13:34:31.424Z,1.95
2022-09-07T13:36:59.807Z,2.03
2022-09-07T13:39:30.114Z,2.30
2022-09-07T13:42:00.232Z,2.25
2022-09-07T13:44:32.891Z,2.28
2022-09-07T13:47:11.337Z,2.05
2022-09-07T13:49:51.391Z,2.72
2022-09-07T13:52:28.896Z,2.40
2022-09-07T13:55:20.746Z,2.42
2022-09-07T13:58:04.056Z,2.35
2022-09-07T14:00:32.051Z,3.00
2022-09-07T14:03:05.803Z,2.10
2022-09-07T14:05:34.156Z,3.20
2022-09-07T14:08:01.848Z,2.22
2022-09-07T14:10:30.985Z,2.35
2022-09-07T14:13:07.535Z,1.92
2022-09-07T14:15:39.384Z,1.85
2022-09-07T14:18:13.400Z,2.65
2022-09-07T14:20:44.749Z,3.35
2022-09-07T14:23:21.061Z,3.40
2022-09-07T14:28:39.969Z,2.53
2022-09-07T14:31:12.198Z,2.58
2022-09-07T14:33:46.530Z,2.53
2022-09-07T14:36:37.391Z,2.20
2022-09-07T14:39:04.515Z,2.30
2022-09-07T14:41:38.453Z,2.38
2022-09-07T14:44:06.467Z,2.67
2022-09-07T14:46:35.099Z,1.88
2022-09-07T14:49:07.634Z,2.20
2022-09-07T14:51:37.037Z,2.20
2022-09-07T14:54:07.193Z,1.98
2022-09-07T14:56:38.146Z,2.00
2022-09-07T14:59:28.149Z,2.03
2022-09-07T15:02:24.953Z,2.65
2022-09-07T15:05:18.368Z,1.80
2022-09-07T15:07:51.093Z,1.85
2022-09-07T15:10:29.267Z,1.60
2022-09-07T15:13:00.071Z,1.80
2022-09-07T15:15:30.841Z,1.50
2022-09-07T15:18:07.610Z,1.77
2022-09-07T15:20:38.854Z,1.75
2022-09-07T15:23:11.061Z,1.80
2022-09-07T15:25:40.646Z,2.00
2022-09-07T15:33:59.931Z,1.77
2022-09-07T15:36:28.810Z,2.25
2022-09-07T15:39:00.087Z,2.20
2022-09-07T15:41:28.583Z,1.60
2022-09-07T15:43:57.692Z,1.67
2022-09-07T15:46:25.435Z,1.50
2022-09-07T15:48:55.643Z,1.85
2022-09-07T15:54:13.690Z,1.70
2022-09-07T15:56:42.753Z,1.80
2022-09-07T15:59:12.883Z,1.80
2022-09-07T16:01:56.859Z,1.67
2022-09-07T16:04:25.151Z,1.55
2022-09-07T16:06:52.880Z,1.60
2022-09-07T16:09:22.111Z,1.80
2022-09-07T16:11:50.867Z,1.90
2022-09-07T16:14:20.211Z,2.05
2022-09-07T16:19:36.170Z,1.80
2022-09-07T16:22:04.190Z,2.17
2022-09-07T16:24:32.300Z,1.77
2022-09-07T16:26:59.966Z,3.40
2022-09-07T16:29:28.936Z,2.35
2022-09-07T16:34:44.944Z,2.20
2022-09-07T16:40:28.005Z,2.00
2022-09-07T16:42:55.664Z,1.80
2022-09-07T16:48:12.721Z,1.92
2022-09-07T16:50:40.398Z,1.80
2022-09-07T16:53:08.536Z,1.70
2022-09-07T16:55:36.224Z,1.98
2022-09-07T17:00:52.860Z,1.88
2022-09-07T17:03:20.541Z,2.17
2022-09-07T17:05:48.123Z,1.95
2022-09-07T17:08:15.775Z,1.73
2022-09-07T17:10:43.787Z,2.08
2022-09-07T17:13:11.425Z,1.63
2022-09-07T17:15:39.130Z,1.95
2022-09-07T17:18:08.475Z,2.00
2022-09-07T17:20:36.272Z,1.67
2022-09-07T17:23:04.574Z,2.00
2022-09-07T17:25:33.238Z,2.28
2022-09-07T17:28:01.025Z,2.10
2022-09-07T17:30:28.611Z,2.20
2022-09-07T17:32:56.290Z,2.13
2022-09-07T17:35:25.550Z,2.05
2022-09-07T17:37:53.168Z,2.03
2022-09-07T17:40:20.870Z,3.15
2022-09-07T17:45:36.760Z,2.13
2022-09-07T17:48:04.604Z,1.95
2022-09-07T17:50:33.524Z,1.85
2022-09-07T17:53:01.055Z,1.98
2022-09-07T17:55:28.718Z,1.90
2022-09-07T17:57:59.057Z,1.85
2022-09-07T18:00:28.881Z,1.73
2022-09-07T18:02:56.832Z,1.70
2022-09-07T18:05:24.530Z,2.30
2022-09-07T18:07:53.431Z,2.00
2022-09-07T18:10:22.362Z,2.40
2022-09-07T18:12:50.066Z,2.35
2022-09-07T18:15:21.120Z,1.92
2022-09-07T18:17:48.732Z,1.90
2022-09-07T18:20:17.913Z,2.08
2022-09-07T18:22:46.818Z,1.80
2022-09-07T18:25:16.164Z,2.08
2022-09-07T18:27:44.390Z,2.10
2022-09-07T18:30:13.853Z,2.33
2022-09-07T18:32:41.561Z,1.73
2022-09-07T18:35:10.156Z,1.63
2022-09-07T18:37:38.299Z,1.80
2022-09-07T18:40:09.029Z,2.30
2022-09-07T18:42:40.433Z,2.00
2022-09-07T18:47:56.367Z,2.30
2022-09-07T18:50:24.040Z,2.08
2022-09-07T18:52:52.564Z,2.03
2022-09-07T18:55:20.715Z,1.97
2022-09-07T18:57:49.851Z,1.98
2022-09-07T19:00:18.046Z,1.80
2022-09-07T19:02:47.524Z,1.70
2022-09-07T19:08:03.901Z,2.00
2022-09-07T19:10:35.139Z,1.70
2022-09-07T19:13:04.401Z,1.80
2022-09-07T19:15:37.132Z,1.50
2022-09-07T19:18:06.062Z,1.95
2022-09-07T19:20:34.484Z,1.83
2022-09-07T19:23:02.752Z,1.70
2022-09-07T19:25:30.362Z,1.70
2022-09-07T19:27:58.096Z,1.88
2022-09-07T19:30:28.005Z,1.80
2022-09-07T19:32:55.584Z,2.05
2022-09-07T19:35:23.229Z,2.10
2022-09-07T19:37:50.848Z,2.35
2022-09-07T19:40:19.406Z,2.10
2022-09-07T19:42:47.170Z,2.00
2022-09-07T19:45:15.800Z,2.10
2022-09-07T19:47:44.829Z,2.30
2022-09-07T19:50:12.513Z,2.30
2022-09-07T19:52:40.089Z,2.30
2022-09-07T19:55:08.811Z,2.60
2022-09-07T19:57:36.406Z,2.23
2022-09-07T20:00:05.453Z,2.33
2022-09-07T20:02:39.484Z,2.30
2022-09-07T20:05:09.171Z,2.50
2022-09-07T20:07:36.775Z,2.37
2022-09-07T20:10:04.585Z,2.53
2022-09-07T20:12:32.180Z,2.30
2022-09-07T20:14:59.810Z,3.00
2022-09-07T20:17:29.690Z,3.90
2022-09-07T20:20:00.713Z,3.10
2022-09-07T20:22:29.643Z,3.00
2022-09-07T20:24:57.295Z,2.80
2022-09-07T20:27:26.687Z,2.97
2022-09-07T20:29:54.346Z,3.13
2022-09-07T20:32:21.929Z,2.87
2022-09-07T20:34:50.559Z,3.08
2022-09-07T20:37:18.160Z,4.00
2022-09-07T20:39:48.660Z,3.07
2022-09-07T20:42:16.367Z,2.77
2022-09-07T20:44:44.016Z,2.80
2022-09-07T20:47:12.058Z,2.93
2022-09-07T20:49:39.739Z,2.90
2022-09-07T20:52:07.351Z,3.63
2022-09-07T20:54:34.983Z,2.73
2022-09-07T20:57:04.292Z,2.75
2022-09-07T20:59:32.131Z,2.50
2022-09-07T21:01:59.797Z,2.77
2022-09-07T21:04:27.560Z,3.00
2022-09-07T21:06:56.248Z,2.57
2022-09-07T21:09:24.427Z,2.50
2022-09-07T21:11:56.744Z,2.53
2022-09-07T21:14:26.006Z,2.10
2022-09-07T21:16:53.667Z,2.30
2022-09-07T21:19:21.526Z,2.13
2022-09-07T21:21:49.171Z,2.33
2022-09-07T21:24:19.311Z,2.33
2022-09-07T21:26:48.265Z,2.20
2022-09-07T21:29:19.118Z,2.30
2022-09-07T21:31:48.583Z,2.10
2022-09-07T21:34:16.947Z,1.90
2022-09-07T21:36:44.654Z,2.40
2022-09-07T21:39:14.515Z,2.10
2022-09-07T21:41:43.379Z,2.30
2022-09-07T21:44:12.704Z,2.10
2022-09-07T21:46:41.327Z,2.07
2022-09-07T21:49:10.518Z,1.77
2022-09-07T21:51:38.255Z,2.10
2022-09-07T21:54:06.063Z,2.13
2022-09-07T21:56:33.731Z,2.03
2022-09-07T21:59:02.951Z,2.20
2022-09-07T22:01:31.855Z,1.90
2022-09-07T22:04:01.573Z,2.03
2022-09-07T22:06:32.433Z,2.17
2022-09-07T22:09:01.041Z,2.23
2022-09-07T22:11:30.443Z,2.03
2022-09-07T22:14:00.335Z,3.10
2022-09-07T22:16:28.457Z,2.17
2022-09-07T22:18:57.587Z,2.27
2022-09-07T22:21:27.238Z,2.30
2022-09-07T22:23:59.950Z,1.93
2022-09-07T22:26:29.934Z,2.00
2022-09-07T22:28:59.441Z,2.10
2022-09-07T22:31:30.063Z,2.43
2022-09-07T22:33:58.895Z,2.40
2022-09-07T22:36:29.433Z,2.23
2022-09-07T22:39:01.367Z,2.07
2022-09-07T22:41:31.509Z,2.13
2022-09-07T22:44:00.297Z,2.70
2022-09-07T22:46:32.149Z,2.60
2022-09-07T22:49:00.365Z,2.43
2022-09-07T22:51:28.668Z,1.90
2022-09-07T22:53:58.413Z,2.70
2022-09-07T22:56:28.147Z,2.60
2022-09-07T22:58:57.541Z,2.40
2022-09-07T23:01:26.125Z,2.07
2022-09-07T23:03:54.266Z,2.17
2022-09-07T23:06:23.709Z,2.27
2022-09-07T23:08:52.746Z,2.67
2022-09-07T23:11:22.626Z,2.50
2022-09-07T23:13:51.407Z,2.13
2022-09-07T23:16:19.275Z,2.23
2022-09-07T23:18:47.102Z,3.33
2022-09-07T23:21:14.909Z,2.30
2022-09-07T23:23:42.637Z,2.20
2022-09-07T23:26:10.700Z,3.03
2022-09-07T23:28:39.721Z,2.77
2022-09-07T23:31:11.304Z,3.00
2022-09-07T23:33:39.223Z,2.20
2022-09-07T23:36:08.183Z,2.87
2022-09-07T23:38:35.955Z,3.07
2022-09-07T23:41:04.338Z,2.40
2022-09-07T23:43:32.056Z,2.73
2022-09-07T23:46:01.196Z,2.83
2022-09-07T23:48:29.263Z,2.50
2022-09-07T23:50:56.930Z,2.50
2022-09-07T23:53:25.090Z,2.27
2022-09-07T23:55:53.517Z,2.07
2022-09-07T23:58:22.627Z,2.10
